createdAt,value
2023-04-15T00:02:19.701Z,63.40
2023-04-15T00:04:47.559Z,62.90
2023-04-15T00:07:14.909Z,63.40
2023-04-15T00:09:43.055Z,63.70
2023-04-15T00:12:10.907Z,63.40
2023-04-15T00:14:38.709Z,63.80
2023-04-15T00:17:05.746Z,64.10
2023-04-15T00:19:33.306Z,64.40
2023-04-15T00:22:01.914Z,64.70
2023-04-15T00:24:29.384Z,64.70
2023-04-15T00:26:56.599Z,64.70
2023-04-15T00:29:23.680Z,64.70
2023-04-15T00:31:50.983Z,64.80
2023-04-15T00:34:18.078Z,65.00
2023-04-15T00:36:45.149Z,65.10
2023-04-15T00:39:12.469Z,65.20
2023-04-15T00:41:39.849Z,65.20
2023-04-15T00:44:09.341Z,65.30
2023-04-15T00:46:37.127Z,64.90
2023-04-15T00:49:05.189Z,65.10
2023-04-15T00:51:57.138Z,65.30
2023-04-15T00:54:24.510Z,64.90
2023-04-15T00:56:51.676Z,64.90
2023-04-15T00:59:21.794Z,65.10
2023-04-15T01:01:48.895Z,65.20
2023-04-15T01:04:16.661Z,65.10
2023-04-15T01:06:43.829Z,65.20
2023-04-15T01:09:11.908Z,65.30
2023-04-15T01:11:39.993Z,65.40
2023-04-15T01:14:09.442Z,65.40
2023-04-15T01:16:39.827Z,65.40
2023-04-15T01:19:08.853Z,64.50
2023-04-15T01:21:39.746Z,64.40
2023-04-15T01:24:11.074Z,64.30
2023-04-15T01:26:39.263Z,64.40
2023-04-15T01:29:08.496Z,63.40
2023-04-15T01:31:37.595Z,63.10
2023-04-15T01:34:24.745Z,63.30
2023-04-15T01:37:12.728Z,63.90
2023-04-15T01:39:40.454Z,64.10
2023-04-15T01:42:09.112Z,64.10
2023-04-15T01:44:37.467Z,64.00
2023-04-15T01:47:06.913Z,64.10
2023-04-15T01:49:35.624Z,64.20
2023-04-15T01:52:03.992Z,64.00
2023-04-15T01:54:32.242Z,64.40
2023-04-15T01:57:00.996Z,64.40
2023-04-15T01:59:31.382Z,64.60
2023-04-15T02:02:00.513Z,64.50
2023-04-15T02:04:29.471Z,64.60
2023-04-15T02:07:01.779Z,64.80
2023-04-15T02:09:31.064Z,64.90
2023-04-15T02:12:00.981Z,65.10
2023-04-15T02:14:30.376Z,65.10
2023-04-15T02:17:06.608Z,65.40
2023-04-15T02:19:35.681Z,65.20
2023-04-15T02:22:05.104Z,65.10
2023-04-15T02:24:34.850Z,65.20
2023-04-15T02:27:04.745Z,65.20
2023-04-15T02:29:33.122Z,65.10
2023-04-15T02:32:02.940Z,64.90
2023-04-15T02:34:32.441Z,65.00
2023-04-15T02:37:01.280Z,65.10
2023-04-15T02:39:29.489Z,65.40
2023-04-15T02:41:59.202Z,65.50
2023-04-15T02:44:28.114Z,65.40
2023-04-15T02:47:00.474Z,66.00
2023-04-15T02:49:31.211Z,66.30
2023-04-15T02:52:00.592Z,66.40
2023-04-15T02:54:28.930Z,66.40
2023-04-15T02:56:57.467Z,66.40
2023-04-15T02:59:25.800Z,66.20
2023-04-15T03:01:56.516Z,66.40
2023-04-15T03:04:24.981Z,66.30
2023-04-15T03:06:53.236Z,66.30
2023-04-15T03:09:22.124Z,66.50
2023-04-15T03:11:53.538Z,66.30
2023-04-15T03:14:22.778Z,66.20
2023-04-15T03:16:52.024Z,66.10
2023-04-15T03:19:20.959Z,66.00
2023-04-15T03:21:49.240Z,65.90
2023-04-15T03:24:18.217Z,65.70
2023-04-15T03:26:46.764Z,66.00
2023-04-15T03:29:18.016Z,65.90
2023-04-15T03:31:46.968Z,66.20
2023-04-15T03:34:15.379Z,66.20
2023-04-15T03:36:43.748Z,66.10
2023-04-15T03:39:12.383Z,66.10
2023-04-15T03:41:40.657Z,66.10
2023-04-15T03:44:08.977Z,66.20
2023-04-15T03:46:37.794Z,66.30
2023-04-15T03:49:07.210Z,66.40
2023-04-15T03:51:36.226Z,66.60
2023-04-15T03:54:04.861Z,66.70
2023-04-15T03:56:33.149Z,66.60
2023-04-15T03:59:02.070Z,66.70
2023-04-15T04:01:30.743Z,66.80
2023-04-15T04:03:59.026Z,66.90
2023-04-15T04:06:27.846Z,66.90
2023-04-15T04:08:56.739Z,67.00
2023-04-15T04:11:24.972Z,67.20
2023-04-15T04:13:53.838Z,67.30
2023-04-15T04:16:22.204Z,67.10
2023-04-15T04:18:50.579Z,66.70
2023-04-15T04:21:18.786Z,67.00
2023-04-15T04:23:47.184Z,67.20
2023-04-15T04:26:15.426Z,67.40
2023-04-15T04:28:43.732Z,67.50
2023-04-15T04:31:12.187Z,67.40
2023-04-15T04:33:40.695Z,67.40
2023-04-15T04:36:09.084Z,67.30
2023-04-15T04:38:37.893Z,67.40
2023-04-15T04:41:06.278Z,67.30
2023-04-15T04:43:35.054Z,67.20
2023-04-15T04:46:03.848Z,67.20
2023-04-15T04:48:32.389Z,66.90
2023-04-15T04:51:01.105Z,66.20
2023-04-15T04:53:29.972Z,66.00
2023-04-15T04:55:58.360Z,66.20
2023-04-15T04:58:27.322Z,66.20
2023-04-15T05:00:55.877Z,66.40
2023-04-15T05:03:24.365Z,66.30
2023-04-15T05:05:52.933Z,66.30
2023-04-15T05:08:21.511Z,66.00
2023-04-15T05:10:49.772Z,66.00
2023-04-15T05:13:18.051Z,66.20
2023-04-15T05:15:46.340Z,67.00
2023-04-15T05:18:14.727Z,67.20
2023-04-15T05:20:45.324Z,66.30
2023-04-15T05:23:16.716Z,65.40
2023-04-15T05:25:45.205Z,65.10
2023-04-15T05:28:13.469Z,64.40
2023-04-15T05:30:46.220Z,63.80
2023-04-15T05:33:14.580Z,63.60
2023-04-15T05:35:46.074Z,63.70
2023-04-15T05:38:14.310Z,64.00
2023-04-15T05:40:42.620Z,63.60
2023-04-15T05:43:11.084Z,63.30
2023-04-15T05:45:42.060Z,63.10
2023-04-15T05:48:10.313Z,63.00
2023-04-15T05:50:41.674Z,63.10
2023-04-15T05:53:09.997Z,63.00
2023-04-15T05:55:38.421Z,63.00
2023-04-15T05:58:06.930Z,63.30
2023-04-15T06:00:35.206Z,63.50
2023-04-15T06:03:04.113Z,63.20
2023-04-15T06:05:33.441Z,63.00
2023-04-15T06:08:02.338Z,63.10
2023-04-15T06:10:31.006Z,63.00
2023-04-15T06:12:59.813Z,62.80
2023-04-15T06:15:28.102Z,62.70
2023-04-15T06:17:56.649Z,62.40
2023-04-15T06:20:25.781Z,62.50
2023-04-15T06:22:54.068Z,62.40
2023-04-15T06:25:22.620Z,61.80
2023-04-15T06:27:50.981Z,60.90
2023-04-15T06:30:19.351Z,60.00
2023-04-15T06:32:47.627Z,58.40
2023-04-15T06:35:16.092Z,57.40
2023-04-15T06:37:44.370Z,55.70
2023-04-15T06:40:13.262Z,54.50
2023-04-15T06:42:42.097Z,53.20
2023-04-15T06:45:10.980Z,52.80
2023-04-15T06:47:39.246Z,52.20
2023-04-15T06:50:09.860Z,51.30
2023-04-15T06:52:38.539Z,50.70
2023-04-15T06:55:08.097Z,49.30
2023-04-15T06:57:37.014Z,48.60
2023-04-15T07:00:05.855Z,47.80
2023-04-15T07:02:34.499Z,46.20
2023-04-15T07:05:02.813Z,46.50
2023-04-15T07:07:31.186Z,45.40
2023-04-15T07:09:59.980Z,45.20
2023-04-15T07:12:28.253Z,44.90
2023-04-15T07:14:56.664Z,45.70
2023-04-15T07:17:25.115Z,45.40
2023-04-15T07:19:54.282Z,44.90
2023-04-15T07:22:24.917Z,44.50
2023-04-15T07:24:55.587Z,44.90
2023-04-15T07:27:24.138Z,43.00
2023-04-15T07:29:53.242Z,43.50
2023-04-15T07:32:22.024Z,42.80
2023-04-15T07:34:50.778Z,43.00
2023-04-15T07:37:22.366Z,42.70
2023-04-15T07:39:51.361Z,43.40
2023-04-15T07:42:19.700Z,43.10
2023-04-15T07:44:47.915Z,42.70
2023-04-15T07:47:16.467Z,42.70
2023-04-15T07:49:45.231Z,43.90
2023-04-15T07:52:15.526Z,44.60
2023-04-15T07:54:43.789Z,44.10
2023-04-15T07:57:13.222Z,44.50
2023-04-15T07:59:41.840Z,44.70
2023-04-15T08:02:14.366Z,44.10
2023-04-15T08:04:43.284Z,44.20
2023-04-15T08:07:11.848Z,44.30
2023-04-15T08:09:40.494Z,45.20
2023-04-15T08:12:12.481Z,45.40
2023-04-15T08:14:40.952Z,45.30
2023-04-15T08:17:12.053Z,45.10
2023-04-15T08:19:41.102Z,45.30
2023-04-15T08:22:10.511Z,45.60
2023-04-15T08:24:46.628Z,45.10
2023-04-15T08:27:14.966Z,45.00
2023-04-15T08:29:43.266Z,45.10
2023-04-15T08:32:14.959Z,44.50
2023-04-15T08:34:48.722Z,43.80
2023-04-15T08:37:17.079Z,42.90
2023-04-15T08:39:46.216Z,43.10
2023-04-15T08:42:25.063Z,42.00
2023-04-15T08:44:55.781Z,42.70
2023-04-15T08:47:24.888Z,41.10
2023-04-15T08:49:55.467Z,41.10
2023-04-15T08:52:28.937Z,41.10
2023-04-15T08:55:04.997Z,42.50
2023-04-15T08:57:33.523Z,41.60
2023-04-15T09:00:05.315Z,41.80
2023-04-15T09:02:36.782Z,42.10
2023-04-15T09:05:11.435Z,41.80
2023-04-15T09:07:40.673Z,41.10
2023-04-15T09:10:09.692Z,41.00
2023-04-15T09:12:41.603Z,41.50
2023-04-15T09:15:12.203Z,41.70
2023-04-15T09:17:44.572Z,41.90
2023-04-15T09:20:14.890Z,41.70
2023-04-15T09:22:48.260Z,41.90
2023-04-15T09:25:34.831Z,41.90
2023-04-15T09:28:04.946Z,42.30
2023-04-15T09:30:33.908Z,42.10
2023-04-15T09:33:03.083Z,41.50
2023-04-15T09:35:35.456Z,42.00
2023-04-15T09:38:13.212Z,42.30
2023-04-15T09:40:42.079Z,42.40
2023-04-15T09:43:13.097Z,42.20
2023-04-15T09:45:53.141Z,41.90
2023-04-15T09:48:23.509Z,41.70
2023-04-15T09:50:53.652Z,41.20
2023-04-15T09:53:22.591Z,40.70
2023-04-15T09:55:57.002Z,39.90
2023-04-15T09:58:26.772Z,40.20
2023-04-15T10:01:04.023Z,40.70
2023-04-15T10:03:35.642Z,41.10
2023-04-15T10:06:05.594Z,41.10
2023-04-15T10:08:41.719Z,41.00
2023-04-15T10:11:09.932Z,40.80
2023-04-15T10:13:38.239Z,41.00
2023-04-15T10:16:16.279Z,41.10
2023-04-15T10:18:48.030Z,39.90
2023-04-15T10:21:18.638Z,40.60
2023-04-15T10:23:47.047Z,38.80
2023-04-15T10:26:22.991Z,39.50
2023-04-15T10:28:54.872Z,39.60
2023-04-15T10:31:23.212Z,39.50
2023-04-15T10:33:51.506Z,39.80
2023-04-15T10:36:20.167Z,38.60
2023-04-15T10:38:49.993Z,38.00
2023-04-15T10:41:22.065Z,37.90
2023-04-15T10:44:10.816Z,37.60
2023-04-15T10:46:40.584Z,38.30
2023-04-15T10:49:17.041Z,37.40
2023-04-15T10:51:46.921Z,37.20
2023-04-15T10:54:33.904Z,36.90
2023-04-15T10:57:06.046Z,37.30
2023-04-15T10:59:58.298Z,36.70
2023-04-15T11:02:54.172Z,36.10
2023-04-15T11:05:41.864Z,37.00
2023-04-15T11:08:10.753Z,36.50
2023-04-15T11:10:42.395Z,36.30
2023-04-15T11:13:17.834Z,37.00
2023-04-15T11:15:47.007Z,36.50
2023-04-15T11:18:16.781Z,36.50
2023-04-15T11:20:47.272Z,36.70
2023-04-15T11:23:16.089Z,37.20
2023-04-15T11:25:44.586Z,37.30
2023-04-15T11:28:13.232Z,36.90
2023-04-15T11:30:42.602Z,37.70
2023-04-15T11:33:12.567Z,38.10
2023-04-15T11:35:44.144Z,37.10
2023-04-15T11:38:13.835Z,36.90
2023-04-15T11:40:45.298Z,36.80
2023-04-15T11:43:22.497Z,36.50
2023-04-15T11:45:55.609Z,36.90
2023-04-15T11:48:29.036Z,36.40
2023-04-15T11:51:02.564Z,36.70
2023-04-15T11:53:43.889Z,37.70
2023-04-15T11:56:12.239Z,37.80
2023-04-15T11:58:41.664Z,37.80
2023-04-15T12:01:08.805Z,37.30
2023-04-15T12:03:49.312Z,36.90
2023-04-15T12:06:21.876Z,36.70
2023-04-15T12:09:02.812Z,37.80
2023-04-15T12:11:31.929Z,37.90
2023-04-15T12:14:11.944Z,37.90
2023-04-15T12:16:48.747Z,38.10
2023-04-15T12:19:19.317Z,37.80
2023-04-15T12:21:48.054Z,37.60
2023-04-15T12:24:15.430Z,37.30
2023-04-15T12:26:47.101Z,37.00
2023-04-15T12:29:15.342Z,36.90
2023-04-15T12:32:14.261Z,37.40
2023-04-15T12:34:43.007Z,37.70
2023-04-15T12:37:11.660Z,37.70
2023-04-15T12:39:39.767Z,37.90
2023-04-15T12:42:06.900Z,37.80
2023-04-15T12:44:37.800Z,38.20
2023-04-15T12:47:04.961Z,38.20
2023-04-15T12:49:33.541Z,38.00
2023-04-15T12:52:01.606Z,37.90
2023-04-15T12:54:29.850Z,38.00
2023-04-15T12:56:56.994Z,37.60
2023-04-15T12:59:24.358Z,37.70
2023-04-15T13:01:54.286Z,37.80
2023-04-15T13:04:22.084Z,37.80
2023-04-15T13:06:49.515Z,38.00
2023-04-15T13:09:16.636Z,37.60
2023-04-15T13:11:43.857Z,37.70
2023-04-15T13:14:13.768Z,37.60
2023-04-15T13:16:41.488Z,37.50
2023-04-15T13:19:08.730Z,37.60
2023-04-15T13:21:36.443Z,37.60
2023-04-15T13:24:04.809Z,37.80
2023-04-15T13:26:32.294Z,38.10
2023-04-15T13:29:01.325Z,38.30
2023-04-15T13:31:32.183Z,38.90
2023-04-15T13:33:59.280Z,38.60
2023-04-15T13:36:27.904Z,38.20
2023-04-15T13:38:56.079Z,38.70
2023-04-15T13:41:23.089Z,39.60
2023-04-15T13:43:50.843Z,40.80
2023-04-15T13:46:19.020Z,41.40
2023-04-15T13:48:46.668Z,41.70
2023-04-15T13:51:13.687Z,42.50
2023-04-15T13:53:41.836Z,43.40
2023-04-15T13:56:09.101Z,44.60
2023-04-15T13:58:39.881Z,45.20
2023-04-15T14:01:07.454Z,45.50
2023-04-15T14:03:38.338Z,46.40
2023-04-15T14:06:07.790Z,46.50
2023-04-15T14:08:34.985Z,47.00
2023-04-15T14:11:05.524Z,47.00
2023-04-15T14:13:36.757Z,47.60
2023-04-15T14:16:07.460Z,48.00
2023-04-15T14:18:35.253Z,48.70
2023-04-15T14:21:02.859Z,48.40
2023-04-15T14:23:29.919Z,48.90
2023-04-15T14:25:56.961Z,49.60
2023-04-15T14:28:24.960Z,49.30
2023-04-15T14:30:52.226Z,49.30
2023-04-15T14:33:25.078Z,49.20
2023-04-15T14:35:59.634Z,49.30
2023-04-15T14:38:26.878Z,49.30
2023-04-15T14:40:54.904Z,49.50
2023-04-15T14:43:23.335Z,49.40
2023-04-15T14:45:51.625Z,50.00
2023-04-15T14:48:20.676Z,50.20
2023-04-15T14:50:47.742Z,50.30
2023-04-15T14:53:14.789Z,50.40
2023-04-15T14:55:42.110Z,49.80
2023-04-15T14:58:09.744Z,49.30
2023-04-15T15:00:40.351Z,48.40
2023-04-15T15:03:13.021Z,48.10
2023-04-15T15:05:44.786Z,47.80
2023-04-15T15:08:12.260Z,48.00
2023-04-15T15:10:48.692Z,47.20
2023-04-15T15:13:17.306Z,47.20
2023-04-15T15:15:44.441Z,47.40
2023-04-15T15:18:11.626Z,47.10
2023-04-15T15:20:38.786Z,46.70
2023-04-15T15:23:05.777Z,46.50
2023-04-15T15:25:32.817Z,46.10
2023-04-15T15:28:00.286Z,45.60
2023-04-15T15:30:27.389Z,45.30
2023-04-15T15:32:54.540Z,45.30
2023-04-15T15:35:23.131Z,44.90
2023-04-15T15:37:50.282Z,44.60
2023-04-15T15:40:42.759Z,44.80
2023-04-15T15:43:09.850Z,44.50
2023-04-15T15:45:36.857Z,45.00
2023-04-15T15:48:04.375Z,45.70
2023-04-15T15:50:31.619Z,45.30
2023-04-15T15:52:58.746Z,45.40
2023-04-15T15:55:27.196Z,45.30
2023-04-15T15:57:54.437Z,45.50
2023-04-15T16:00:23.029Z,46.00
2023-04-15T16:03:06.103Z,46.10
2023-04-15T16:05:35.114Z,46.00
2023-04-15T16:08:02.808Z,46.10
2023-04-15T16:10:29.972Z,46.80
2023-04-15T16:12:59.693Z,46.30
2023-04-15T16:15:27.724Z,46.70
2023-04-15T16:17:54.707Z,46.60
2023-04-15T16:20:22.270Z,46.60
2023-04-15T16:22:49.926Z,46.70
2023-04-15T16:25:18.054Z,47.10
2023-04-15T16:27:57.664Z,47.30
2023-04-15T16:30:26.857Z,48.30
2023-04-15T16:32:54.840Z,49.30
2023-04-15T16:35:22.201Z,50.00
2023-04-15T16:37:49.212Z,50.60
2023-04-15T16:40:16.805Z,50.50
2023-04-15T16:42:43.849Z,50.40
2023-04-15T16:45:11.136Z,50.60
2023-04-15T16:47:38.183Z,50.70
2023-04-15T16:50:05.622Z,50.90
2023-04-15T16:52:32.642Z,51.40
2023-04-15T16:55:00.575Z,52.30
2023-04-15T16:57:54.052Z,52.90
2023-04-15T17:00:15.935Z,53.80
2023-04-15T17:02:43.167Z,54.30
2023-04-15T17:05:11.395Z,54.80
2023-04-15T17:07:38.963Z,55.20
2023-04-15T17:10:06.529Z,55.70
2023-04-15T17:12:33.589Z,55.70
2023-04-15T17:15:01.298Z,55.90
2023-04-15T17:17:30.768Z,56.10
2023-04-15T17:19:58.807Z,56.20
2023-04-15T17:22:27.408Z,56.40
2023-04-15T17:24:54.448Z,56.40
2023-04-15T17:27:22.746Z,56.50
2023-04-15T17:29:50.031Z,56.70
2023-04-15T17:32:40.367Z,56.60
2023-04-15T17:35:27.895Z,56.80
2023-04-15T17:38:14.903Z,56.90
2023-04-15T17:41:01.884Z,57.00
2023-04-15T17:43:49.546Z,57.10
2023-04-15T17:46:36.926Z,57.10
2023-04-15T17:49:27.083Z,57.20
2023-04-15T17:52:14.428Z,57.30
2023-04-15T17:55:23.322Z,57.40
2023-04-15T17:58:27.740Z,57.70
2023-04-15T18:01:21.303Z,57.90
2023-04-15T18:04:09.195Z,57.70
2023-04-15T18:06:57.937Z,57.90
2023-04-15T18:09:46.396Z,57.90
2023-04-15T18:12:35.415Z,57.80
2023-04-15T18:15:25.057Z,57.50
2023-04-15T18:18:17.987Z,57.20
2023-04-15T18:21:07.152Z,57.60
2023-04-15T18:23:37.433Z,57.80
2023-04-15T18:26:09.963Z,57.80
2023-04-15T18:28:41.954Z,57.60
2023-04-15T18:31:13.814Z,57.40
2023-04-15T18:33:41.861Z,57.60
2023-04-15T18:36:12.665Z,58.10
2023-04-15T18:38:40.134Z,59.00
2023-04-15T18:41:09.982Z,57.20
2023-04-15T18:43:38.197Z,57.00
2023-04-15T18:46:17.226Z,57.90
2023-04-15T18:48:49.571Z,57.20
2023-04-15T18:51:17.706Z,56.90
2023-04-15T18:53:46.905Z,55.80
2023-04-15T18:56:18.556Z,56.00
2023-04-15T18:59:25.864Z,56.30
2023-04-15T19:01:46.987Z,57.10
2023-04-15T19:04:25.430Z,57.10
2023-04-15T19:07:01.512Z,58.50
2023-04-15T19:09:34.381Z,59.50
2023-04-15T19:12:30.186Z,60.40
2023-04-15T19:15:01.830Z,60.80
2023-04-15T19:17:32.871Z,61.40
2023-04-15T19:20:24.063Z,61.80
2023-04-15T19:22:59.549Z,62.30
2023-04-15T19:25:36.224Z,62.70
2023-04-15T19:28:13.005Z,63.10
2023-04-15T19:31:14.308Z,63.80
2023-04-15T19:33:42.858Z,63.60
2023-04-15T19:36:17.012Z,63.70
2023-04-15T19:38:45.402Z,63.90
2023-04-15T19:41:19.449Z,63.50
2023-04-15T19:43:49.618Z,63.70
2023-04-15T19:46:20.258Z,63.50
2023-04-15T19:48:52.107Z,63.80
2023-04-15T19:51:19.330Z,64.10
2023-04-15T19:53:47.278Z,64.50
2023-04-15T19:56:17.020Z,64.30
2023-04-15T19:58:52.817Z,64.80
2023-04-15T20:01:21.461Z,64.60
2023-04-15T20:03:50.448Z,65.00
2023-04-15T20:06:17.613Z,65.10
2023-04-15T20:08:45.938Z,65.10
2023-04-15T20:11:13.076Z,65.20
2023-04-15T20:13:42.409Z,65.30
2023-04-15T20:16:09.811Z,65.60
2023-04-15T20:18:37.001Z,65.70
2023-04-15T20:21:04.097Z,65.60
2023-04-15T20:23:31.204Z,65.30
2023-04-15T20:25:58.245Z,65.20
2023-04-15T20:28:27.505Z,65.30
2023-04-15T20:30:54.985Z,65.20
2023-04-15T20:33:22.890Z,65.30
2023-04-15T20:35:50.025Z,65.10
2023-04-15T20:38:17.836Z,65.00
2023-04-15T20:40:44.908Z,65.10
2023-04-15T20:43:11.966Z,64.80
2023-04-15T20:45:39.979Z,64.90
2023-04-15T20:48:07.178Z,65.00
2023-04-15T20:50:34.911Z,65.10
2023-04-15T20:53:05.161Z,65.30
2023-04-15T20:55:32.965Z,65.30
2023-04-15T20:58:00.142Z,65.30
2023-04-15T21:00:27.928Z,65.30
2023-04-15T21:02:56.050Z,65.40
2023-04-15T21:05:23.278Z,65.40
2023-04-15T21:07:51.052Z,65.30
2023-04-15T21:10:18.314Z,65.40
2023-04-15T21:12:45.421Z,65.50
2023-04-15T21:15:13.695Z,65.60
2023-04-15T21:17:41.830Z,65.30
2023-04-15T21:20:11.103Z,65.20
2023-04-15T21:22:42.044Z,65.00
2023-04-15T21:25:09.781Z,65.00
2023-04-15T21:27:36.848Z,65.00
2023-04-15T21:30:06.274Z,64.80
2023-04-15T21:32:33.612Z,65.00
2023-04-15T21:35:00.625Z,65.10
2023-04-15T21:37:32.696Z,65.00
2023-04-15T21:40:01.338Z,64.90
2023-04-15T21:42:29.994Z,64.90
2023-04-15T21:45:00.215Z,64.80
2023-04-15T21:47:28.888Z,64.80
2023-04-15T21:49:57.334Z,64.70
2023-04-15T21:52:24.503Z,64.80
2023-04-15T21:54:52.537Z,65.00
2023-04-15T21:57:19.927Z,65.20
2023-04-15T21:59:47.714Z,65.10
2023-04-15T22:02:14.758Z,64.90
2023-04-15T22:04:45.400Z,65.10
2023-04-15T22:07:15.556Z,65.00
2023-04-15T22:09:42.674Z,64.50
2023-04-15T22:14:53.919Z,64.30
2023-04-15T22:17:22.375Z,63.90
2023-04-15T22:19:51.788Z,64.20
2023-04-15T22:22:19.672Z,64.20
2023-04-15T22:24:51.376Z,64.40
2023-04-15T22:27:18.441Z,64.70
2023-04-15T22:29:45.423Z,64.70
2023-04-15T22:32:12.623Z,64.80
2023-04-15T22:34:39.891Z,65.30
2023-04-15T22:37:06.939Z,65.80
2023-04-15T22:39:34.754Z,65.80
2023-04-15T22:42:02.111Z,65.70
2023-04-15T22:44:32.286Z,65.70
2023-04-15T22:46:59.423Z,65.90
2023-04-15T22:49:27.001Z,65.70
2023-04-15T22:51:54.649Z,65.60
2023-04-15T22:54:22.196Z,65.50
2023-04-15T22:56:49.211Z,65.50
2023-04-15T22:59:16.208Z,65.40
2023-04-15T23:01:43.298Z,65.60
2023-04-15T23:04:25.720Z,65.60
2023-04-15T23:06:56.885Z,65.70
2023-04-15T23:09:23.962Z,65.70
2023-04-15T23:11:52.031Z,65.70
2023-04-15T23:14:20.144Z,65.80
2023-04-15T23:16:47.113Z,65.70
2023-04-15T23:19:14.072Z,65.60
2023-04-15T23:21:41.154Z,65.70
2023-04-15T23:24:08.247Z,65.90
2023-04-15T23:26:35.924Z,65.80
2023-04-15T23:29:04.022Z,65.80
2023-04-15T23:31:31.362Z,65.80
2023-04-15T23:33:58.385Z,65.80
2023-04-15T23:36:25.878Z,65.90
2023-04-15T23:38:52.927Z,66.10
2023-04-15T23:41:19.964Z,66.10
2023-04-15T23:43:47.513Z,66.10
2023-04-15T23:46:14.473Z,66.10
2023-04-15T23:48:41.955Z,66.00
2023-04-15T23:51:09.055Z,66.20
2023-04-15T23:53:36.329Z,66.00
2023-04-15T23:56:03.871Z,66.00
2023-04-15T23:58:32.246Z,66.20
